Airfield :
LOGIN :

Register | Disclaimer

   EN    FR    IT 

 










Legend :    VFR   Marginal VFR   IFR   Intensive IFR   Very Intensive IFR
Visi :
Ceiling :
>= 8 km
>= 3000ft
5 to 8 km
1000 to 3000 ft
1500m to 5 km
500 to 1000 ft
800 to 1500m
200 to 500 ft
< 800m
< 200 ft
Symbols :   Thunderstorms  Fog  Heavy snow  Heavy precipitations  Wind > 20 kt
SIGMETs :     Misc.  Thunderstorms  Icing  Turbulence  Mountain Waves  Volcanic Ashes






- Airport Elevation : 2835 ft
- IATA code : ISE


LTFC - Suleyman Demirel

CURRENT METAR :
  • 250450Z 34010KT 9999 FEW014 BKN180 03/M01 Q1016 RMK RWY23 00000KT

EXPIRED METARs :
  • 250420Z 02007KT 350V050 8000 FEW010 BKN180 03/M02 Q1016
  • 250350Z 35008KT 8000 FEW010 BKN180 04/M02 Q1016
  • 250320Z 36006KT 8000 FEW010 BKN180 03/M02 Q1016 RMK RWY23 04004KT
  • 250250Z 01005KT 340V040 8000 FEW010 BKN180 02/M01 Q1016 RMK RWY23 05003KT 360V080
  • 250220Z 01006KT 340V040 8000 FEW010 BKN180 04/M02 Q1016
  • 250150Z 35008KT 8000 FEW010 BKN180 05/M02 Q1016 RMK RWY23 01004KT

TAF COR TAF LTFC
Valid from the 25 at 00:00 until the 26 at 00:00 UTC


242240Z 2500/2524 36006KT CAVOK
PROB40 2503/2506 4000 BR FEW010 BKN180
BECMG 2506/2510 02016KT FEW030 BKN200
BECMG 2514/2516 36006KT



MET'MAP, your aeronautical weather chart ! - Copyright ORBIFLY December 2007 - Disclaimer

ORBIFLY MET'MAP TEAM :

Programming & Development : Alexandra Zaïnal
Concept & original design : Baudouin d'Aumeries
Assistance for programming : Marc-Olivier Méhu
Technical & hardware support : Manuel Goepfert

Contact : metmap@orbifly.com




SOURCES & CREDITS :

   NOAA